Terminal Aerodrome Forecast
Issued by NWS Charleston, WV

Current Version | Previous Version | Graphics & Text | Print | Product List | Glossary On
Versions: 1 2 3 4 5 6 7 8 9 10 11 12 13 14 15 16 17 18 19 20 21 22 23 24 25 26 27 28 29 30 31
000
FTUS41 KRLX 290534
TAFEKN
TAF
KEKN 290534Z 2906/3006 VRB04KT P6SM VCTS OVC025CB
     FM290900 29004KT 6SM SHRA OVC010
     FM291300 13010KT P6SM OVC025
     FM291700 12011KT P6SM SHRA VCTS OVC035CB
     FM300100 13009KT 6SM SHRA OVC025
     FM300400 11007KT 5SM SHRA SCT008 OVC015=

USA.gov is the U.S. government's official web portal to all federal, state and local government web resources and services.